CheckWX is a tool to help pilots better visualize weather data.  It is not intended as a substitute for an official pre-flight weather briefing.

14:57:32 UTC

KJKL TAF
Julian Carroll Airport
Jackson, Kentucky, USA
KJKL 171136Z 1712/1812 VRB03KT P6SM FEW150 SCT250 FM171600 VRB03KT P6SM SCT050 FM172300 VRB03KT P6SM FEW250

Aug-17@
12:00 UTC

Aug-17 @ 12:00 UTC

Aug-17@
16:00 UTC

Aug-17 @ 16:00 UTC

KJKL 171136Z 1712/1812 VRB03KT P6SM FEW150 SCT250
Wind
  • Variable at 3 KTS
Cloud Levels
  • Few at 15,000' AGL
  • Scattered at 25,000' AGL

Aug-17@
16:00 UTC

Aug-17 @ 16:00 UTC

Aug-17@
23:00 UTC

Aug-17 @ 23:00 UTC

FM171600 VRB03KT P6SM SCT050

From

From Standard forecast or significant change

Wind
  • Variable at 3 KTS
Cloud Levels
  • Scattered at 5,000' AGL

Aug-17@
23:00 UTC

Aug-17 @ 23:00 UTC

Aug-18@
12:00 UTC

Aug-18 @ 12:00 UTC

FM172300 VRB03KT P6SM FEW250

From

From Standard forecast or significant change

Wind
  • Variable at 3 KTS
Cloud Levels
  • Few at 25,000' AGL